Aix Les Milles, France

3:24 PM CEST on September 16, 2014 (GMT +0200)
Realtor | Change Station
CLOSE
Current Station
Personal Weather Station
Location: CABRIES, PACA
Elevation: 590 ft
Nearby Weather Stations

Elev 590 ft 43.47 °N, 5.34 °E | Updated 8 minutes ago

Mostly Cloudy
Mostly Cloudy
81.9 °F
Feels Like 83 °F
N
3.0
Wind Variable Wind from SW
Gusts 8.0 mph

Today
High -- | Low -- °F
--% Chance of Precip.
Yesterday
High -- | Low -- °F
Precip. -- in
7:18 AM 7:47 PM
Last Quarter, 45% visible
Pressure 29.92 in
Visibility 6.2 miles
Clouds Few 4600 ft
Mostly Cloudy 26000 ft
Heat Index 83 °F
Dew Point 62 °F
Humidity 51%
Rainfall 0.01 in
Snow Depth Not available.
UV 4 out of 12
Pollen Not available.
Air Quality Not available.
Flu Activity Not available.
METAR LFML 161300Z 23008KT 190V250 9999 FEW046 BKN260 27/17 Q1013 NOSIG

More Conditions Fewer Conditions

Pressure 29.92 in
Visibility 6.2 miles
Clouds Few 4600 ft
Mostly Cloudy 26000 ft
Heat Index 83 °F
Dew Point 62 °F
Humidity 51%
Rainfall 0.01 in
Snow Depth Not available.
UV 4 out of 12
Pollen Not available.
Air Quality Not available.
Flu Activity Not available.
METAR LFML 161300Z 23008KT 190V250 9999 FEW046 BKN260 27/17 Q1013 NOSIG

More Conditions Fewer Conditions

10-Day Weather Forecast

Almanac

Astronomy

Sep. 16, 2014 Rise Set
Actual Time 7:18 AM CEST 7:47 PM CEST
Civil Twilight 6:50 AM CEST 8:15 PM CEST
Nautical Twilight 6:16 AM CEST 8:49 PM CEST
Astronomical Twilight 5:41 AM CEST 9:24 PM CEST
Moon 12:07 AM CEST 3:05 PM CEST
Length of Visible Light 13h 25m
Length of Day
12h 28m
Tomorrow will be 2m 56s shorter.
Last Quarter, 45% of the Moon is Illuminated
Today
Last Quarter
Sep 24
New
Oct 1
First Quarter
Oct 8
Full
Oct 15
Last Quarter

Yesterday's Extremes

Country Highs Country Lows

Community

WunderPhotos

Upload Photos

1,753,759 photos uploaded!

Nearby

Snow Depth

Not available.

Earthquake Activity

City Distance Mag. Time & Date
No recent earthquake activity has been reported nearby.
Minimum magnitude displayed is 2.5.

Coastal Water Temperatures

Place Temperature
No Stations Reporting

Nearby Weather Stations